Terminal Aerodrome Forecast
Issued by NWS Jackson, MS

Home | Current Version | Previous Version | Text Only | Print | Product List | Glossary On
Versions: 1 2 3 4 5 6 7 8 9 10 11
691
FTUS44 KJAN 261720
TAFJAN
TAF
KJAN 261720Z 2618/2718 17014G21KT P6SM BKN030
     FM270100 16021G27KT P6SM OVC050
     FM270300 20022G30KT 4SM TSRA BR OVC025CB
     FM270700 30010KT P6SM -RA OVC007
     FM271100 27005KT P6SM BKN015
     FM271500 26005KT P6SM SCT250=

USA.gov is the U.S. government's official web portal to all federal, state and local government web resources and services.